LYTR weather

Trstenik Airport
Trstenik, Rasina, Serbia

Public forecast

Using degrees Celsius for public forecast. Weather courtesy of forecast.io.

Closest aviation weather report (METAR) to Trstenik Airport

Closest report is Morava Airport, 22.8 nm (42.2 km) WNW. Retrieved 2020/07/06 16:30 UTC (40 minutes ago):

LYKV 061630Z 35003KT 300V020 9999 TS FEW030CB BKN045 27/18 Q1008 BECMG NSW SCT040

Closest aviation forecast (TAF) to Trstenik Airport

Closest forecast is Morava Airport, 22.8 nm (42.2 km) WNW. Retrieved 2020/07/06 12:00 UTC (5 hours ago):

TAF LYKV 061100Z 0612/0712 32005KT 9999 SCT040 TX30/0614Z TN14/0706Z PROB40 TEMPO 0612/0617 VRB15KT 5000 TSRA SCT027CB SCT040 BECMG 0701/0703 32012KT TEMPO 0703/0712 32015G25KT 5000 RA BKN010 BKN030